This is the latest recevied weather packets stored in our database for station/object KA7KDX-4. If no packets are shown the sender has not sent any weather packets the latest 10 day(s).
| Time | Temp. | Humidity | Pressure | Rain* | Wind** | Luminosity | Snow |
|---|---|---|---|---|---|---|---|
| 1777832106 | 21.11° C | 30% | 1007.2 hPa | 0 mm | - | - | - |
| 1777831806 | 21.67° C | 25% | 1007 hPa | 0 mm | - | - | - |
| 1777831506 | 21.67° C | 25% | 1007.3 hPa | 0 mm | - | - | - |
| 1777831205 | 21.11° C | 27% | 1007.4 hPa | 0 mm | - | - | - |
| 1777830905 | 21.67° C | 29% | 1007.4 hPa | 0 mm | - | - | - |
| 1777830605 | 22.22° C | 28% | 1007 hPa | 0 mm | - | - | - |
| 1777830305 | 22.78° C | 18% | 1006.7 hPa | 0 mm | - | - | - |
| 1777830005 | 22.78° C | 17% | 1006.7 hPa | 0 mm | - | - | - |
| 1777829706 | 22.78° C | 17% | 1006.8 hPa | 0 mm | - | - | - |
| 1777829406 | 22.78° C | 16% | 1006.9 hPa | 0 mm | - | - | - |
| 1777829106 | 22.78° C | 17% | 1006.9 hPa | 0 mm | - | - | - |
| 1777828806 | 22.22° C | 17% | 1007 hPa | 0 mm | - | - | - |
| 1777828506 | 22.22° C | 17% | 1007.1 hPa | 0 mm | - | - | - |
| 1777828205 | 22.22° C | 17% | 1007 hPa | 0 mm | - | - | - |
| 1777827905 | 21.67° C | 18% | 1007.2 hPa | 0 mm | - | - | - |
| 1777827605 | 21.67° C | 20% | 1007.4 hPa | 0 mm | - | - | - |
| 1777827305 | 21.11° C | 20% | 1007.6 hPa | 0 mm | - | - | - |
| 1777827005 | 21.11° C | 20% | 1007.7 hPa | 0 mm | - | - | - |
| 1777826706 | 20.56° C | 22% | 1007.8 hPa | 0 mm | - | - | - |
| 1777826406 | 20.56° C | 21% | 1007.9 hPa | 0 mm | - | - | - |
| 1777826106 | 20.56° C | 21% | 1008 hPa | 0 mm | - | - | - |
| 1777825806 | 20° C | 22% | 1008.2 hPa | 0 mm | - | - | - |
| 1777825505 | 20° C | 22% | 1008.3 hPa | 0 mm | - | - | - |
| 1777825206 | 19.44° C | 22% | 1008.5 hPa | 0 mm | - | - | - |
| 1777824905 | 19.44° C | 23% | 1008.6 hPa | 0 mm | - | - | - |
* Rain latest hour (hover to see other rain measurements)
** Current wind speed in m/s (hover to see current wind gust speed)